sensor_id;sensor_type;location;lat;lon;timestamp;temperature;humidity
35960;DHT22;22043;50.970;7.192;2022-09-09T00:02:22;16.80;99.90
35960;DHT22;22043;50.970;7.192;2022-09-09T00:05:00;16.90;99.90
35960;DHT22;22043;50.970;7.192;2022-09-09T00:07:43;16.80;99.90
35960;DHT22;22043;50.970;7.192;2022-09-09T00:10:30;16.90;99.90
35960;DHT22;22043;50.970;7.192;2022-09-09T00:13:19;16.90;99.90
35960;DHT22;22043;50.970;7.192;2022-09-09T00:18:24;16.90;99.90
35960;DHT22;22043;50.970;7.192;2022-09-09T00:21:05;16.80;99.90
35960;DHT22;22043;50.970;7.192;2022-09-09T00:23:49;16.80;99.90
35960;DHT22;22043;50.970;7.192;2022-09-09T00:26:23;16.80;99.90
35960;DHT22;22043;50.970;7.192;2022-09-09T00:31:38;16.80;99.90
35960;DHT22;22043;50.970;7.192;2022-09-09T00:34:21;16.80;99.90
35960;DHT22;22043;50.970;7.192;2022-09-09T00:36:50;16.80;99.90
35960;DHT22;22043;50.970;7.192;2022-09-09T00:39:40;16.70;99.90
35960;DHT22;22043;50.970;7.192;2022-09-09T00:42:20;16.70;99.90
35960;DHT22;22043;50.970;7.192;2022-09-09T00:47:53;16.70;99.90
35960;DHT22;22043;50.970;7.192;2022-09-09T00:53:19;16.60;99.90
35960;DHT22;22043;50.970;7.192;2022-09-09T00:56:12;16.60;99.90
35960;DHT22;22043;50.970;7.192;2022-09-09T00:58:38;16.60;99.90
35960;DHT22;22043;50.970;7.192;2022-09-09T01:01:12;16.60;99.90
35960;DHT22;22043;50.970;7.192;2022-09-09T01:03:49;16.60;99.90
35960;DHT22;22043;50.970;7.192;2022-09-09T01:06:35;16.60;99.90
35960;DHT22;22043;50.970;7.192;2022-09-09T01:09:33;16.60;99.90
35960;DHT22;22043;50.970;7.192;2022-09-09T01:12:23;16.60;99.90
35960;DHT22;22043;50.970;7.192;2022-09-09T01:15:18;16.70;99.90
35960;DHT22;22043;50.970;7.192;2022-09-09T01:17:52;16.70;99.90
35960;DHT22;22043;50.970;7.192;2022-09-09T01:28:26;16.80;99.90
35960;DHT22;22043;50.970;7.192;2022-09-09T01:30:58;16.80;99.90
35960;DHT22;22043;50.970;7.192;2022-09-09T01:33:30;16.80;99.90
35960;DHT22;22043;50.970;7.192;2022-09-09T01:38:31;16.80;99.90
35960;DHT22;22043;50.970;7.192;2022-09-09T01:40:58;16.80;99.90
35960;DHT22;22043;50.970;7.192;2022-09-09T01:43:32;16.80;99.90
35960;DHT22;22043;50.970;7.192;2022-09-09T01:46:01;16.70;99.90
35960;DHT22;22043;50.970;7.192;2022-09-09T01:48:28;16.70;99.90
35960;DHT22;22043;50.970;7.192;2022-09-09T01:51:04;16.70;99.90
35960;DHT22;22043;50.970;7.192;2022-09-09T01:53:30;16.70;99.90
35960;DHT22;22043;50.970;7.192;2022-09-09T02:01:30;16.70;99.90
35960;DHT22;22043;50.970;7.192;2022-09-09T02:04:03;16.70;99.90
35960;DHT22;22043;50.970;7.192;2022-09-09T02:06:38;16.70;99.90
35960;DHT22;22043;50.970;7.192;2022-09-09T02:09:19;16.70;99.90
35960;DHT22;22043;50.970;7.192;2022-09-09T02:11:47;16.70;99.90
35960;DHT22;22043;50.970;7.192;2022-09-09T02:14:31;16.80;99.90
35960;DHT22;22043;50.970;7.192;2022-09-09T02:17:06;16.80;99.90
35960;DHT22;22043;50.970;7.192;2022-09-09T02:20:22;16.80;99.90
35960;DHT22;22043;50.970;7.192;2022-09-09T02:22:56;16.80;99.90
35960;DHT22;22043;50.970;7.192;2022-09-09T02:25:26;16.80;99.90
35960;DHT22;22043;50.970;7.192;2022-09-09T02:27:57;16.80;99.90
35960;DHT22;22043;50.970;7.192;2022-09-09T02:30:28;16.80;99.90
35960;DHT22;22043;50.970;7.192;2022-09-09T02:32:58;16.80;99.90
35960;DHT22;22043;50.970;7.192;2022-09-09T02:35:39;16.80;99.90
35960;DHT22;22043;50.970;7.192;2022-09-09T02:38:09;16.70;99.90
35960;DHT22;22043;50.970;7.192;2022-09-09T02:40:37;16.70;99.90
35960;DHT22;22043;50.970;7.192;2022-09-09T02:43:03;16.70;99.90
35960;DHT22;22043;50.970;7.192;2022-09-09T02:45:47;16.70;99.90
35960;DHT22;22043;50.970;7.192;2022-09-09T02:48:20;16.70;99.90
35960;DHT22;22043;50.970;7.192;2022-09-09T02:51:12;16.70;99.90
35960;DHT22;22043;50.970;7.192;2022-09-09T02:53:50;16.70;99.90
35960;DHT22;22043;50.970;7.192;2022-09-09T02:56:21;16.70;99.90
35960;DHT22;22043;50.970;7.192;2022-09-09T02:58:49;16.70;99.90
35960;DHT22;22043;50.970;7.192;2022-09-09T03:01:17;16.70;99.90
35960;DHT22;22043;50.970;7.192;2022-09-09T03:03:43;16.70;99.90
35960;DHT22;22043;50.970;7.192;2022-09-09T03:06:14;16.80;99.90
35960;DHT22;22043;50.970;7.192;2022-09-09T03:08:40;16.70;99.90
35960;DHT22;22043;50.970;7.192;2022-09-09T03:11:06;16.80;99.90
35960;DHT22;22043;50.970;7.192;2022-09-09T03:13:35;16.70;99.90
35960;DHT22;22043;50.970;7.192;2022-09-09T03:16:01;16.80;99.90
35960;DHT22;22043;50.970;7.192;2022-09-09T03:18:30;16.80;99.90
35960;DHT22;22043;50.970;7.192;2022-09-09T03:20:56;16.80;99.90
35960;DHT22;22043;50.970;7.192;2022-09-09T03:23:25;16.80;99.90
35960;DHT22;22043;50.970;7.192;2022-09-09T03:25:51;16.80;99.90
35960;DHT22;22043;50.970;7.192;2022-09-09T03:28:22;16.80;99.90
35960;DHT22;22043;50.970;7.192;2022-09-09T03:30:50;16.80;99.90
35960;DHT22;22043;50.970;7.192;2022-09-09T03:33:16;16.70;99.90
35960;DHT22;22043;50.970;7.192;2022-09-09T03:35:46;16.80;99.90
35960;DHT22;22043;50.970;7.192;2022-09-09T03:38:13;16.80;99.90
35960;DHT22;22043;50.970;7.192;2022-09-09T03:40:38;16.80;99.90
35960;DHT22;22043;50.970;7.192;2022-09-09T03:43:04;16.80;99.90
35960;DHT22;22043;50.970;7.192;2022-09-09T03:45:30;16.80;99.90
35960;DHT22;22043;50.970;7.192;2022-09-09T03:47:56;16.80;99.90
35960;DHT22;22043;50.970;7.192;2022-09-09T03:50:22;16.80;99.90
35960;DHT22;22043;50.970;7.192;2022-09-09T03:52:49;16.80;99.90
35960;DHT22;22043;50.970;7.192;2022-09-09T03:55:19;16.80;99.90
35960;DHT22;22043;50.970;7.192;2022-09-09T03:57:45;16.80;99.90
35960;DHT22;22043;50.970;7.192;2022-09-09T04:00:12;16.80;99.90
35960;DHT22;22043;50.970;7.192;2022-09-09T04:02:50;16.80;99.90
35960;DHT22;22043;50.970;7.192;2022-09-09T04:05:19;16.80;99.90
35960;DHT22;22043;50.970;7.192;2022-09-09T04:07:46;16.80;99.90
35960;DHT22;22043;50.970;7.192;2022-09-09T04:10:12;16.80;99.90
35960;DHT22;22043;50.970;7.192;2022-09-09T04:12:39;16.80;99.90
35960;DHT22;22043;50.970;7.192;2022-09-09T04:15:05;16.80;99.90
35960;DHT22;22043;50.970;7.192;2022-09-09T04:17:32;16.80;99.90
35960;DHT22;22043;50.970;7.192;2022-09-09T04:19:58;16.80;99.90
35960;DHT22;22043;50.970;7.192;2022-09-09T04:22:24;16.80;99.90
35960;DHT22;22043;50.970;7.192;2022-09-09T04:24:49;16.80;99.90
35960;DHT22;22043;50.970;7.192;2022-09-09T04:27:17;16.80;99.90
35960;DHT22;22043;50.970;7.192;2022-09-09T04:29:43;16.80;99.90
35960;DHT22;22043;50.970;7.192;2022-09-09T04:32:09;16.80;99.90
35960;DHT22;22043;50.970;7.192;2022-09-09T04:34:34;16.70;99.90
35960;DHT22;22043;50.970;7.192;2022-09-09T04:37:00;16.70;99.90
35960;DHT22;22043;50.970;7.192;2022-09-09T04:39:26;16.80;99.90
35960;DHT22;22043;50.970;7.192;2022-09-09T04:41:52;16.80;99.90
35960;DHT22;22043;50.970;7.192;2022-09-09T04:44:20;16.80;99.90
35960;DHT22;22043;50.970;7.192;2022-09-09T04:46:46;16.70;99.90
35960;DHT22;22043;50.970;7.192;2022-09-09T04:49:12;16.70;99.90
35960;DHT22;22043;50.970;7.192;2022-09-09T04:51:38;16.70;99.90
35960;DHT22;22043;50.970;7.192;2022-09-09T04:54:03;16.80;99.90
35960;DHT22;22043;50.970;7.192;2022-09-09T04:56:31;16.70;99.90
35960;DHT22;22043;50.970;7.192;2022-09-09T04:58:58;16.80;99.90
35960;DHT22;22043;50.970;7.192;2022-09-09T05:01:36;16.70;99.90
35960;DHT22;22043;50.970;7.192;2022-09-09T05:04:04;16.70;99.90
35960;DHT22;22043;50.970;7.192;2022-09-09T05:06:32;16.80;99.90
35960;DHT22;22043;50.970;7.192;2022-09-09T05:08:59;16.70;99.90
35960;DHT22;22043;50.970;7.192;2022-09-09T05:11:30;16.80;99.90
35960;DHT22;22043;50.970;7.192;2022-09-09T05:14:20;16.80;99.90
35960;DHT22;22043;50.970;7.192;2022-09-09T05:16:45;16.90;99.90
35960;DHT22;22043;50.970;7.192;2022-09-09T05:19:12;16.80;99.90
35960;DHT22;22043;50.970;7.192;2022-09-09T05:21:47;16.90;99.90
35960;DHT22;22043;50.970;7.192;2022-09-09T05:24:15;16.90;99.90
35960;DHT22;22043;50.970;7.192;2022-09-09T05:26:42;16.90;99.90
35960;DHT22;22043;50.970;7.192;2022-09-09T05:29:09;16.90;99.90
35960;DHT22;22043;50.970;7.192;2022-09-09T05:31:35;16.90;99.90
35960;DHT22;22043;50.970;7.192;2022-09-09T05:34:05;16.90;99.90
35960;DHT22;22043;50.970;7.192;2022-09-09T05:36:30;16.90;99.90
35960;DHT22;22043;50.970;7.192;2022-09-09T05:38:56;16.90;99.90
35960;DHT22;22043;50.970;7.192;2022-09-09T05:41:24;16.90;99.90
35960;DHT22;22043;50.970;7.192;2022-09-09T05:43:53;16.90;99.90
35960;DHT22;22043;50.970;7.192;2022-09-09T05:46:22;16.90;99.90
35960;DHT22;22043;50.970;7.192;2022-09-09T05:48:52;17.00;99.90
35960;DHT22;22043;50.970;7.192;2022-09-09T05:51:23;17.00;99.90
35960;DHT22;22043;50.970;7.192;2022-09-09T05:53:50;17.00;99.90
35960;DHT22;22043;50.970;7.192;2022-09-09T05:56:19;17.00;99.90
35960;DHT22;22043;50.970;7.192;2022-09-09T05:58:45;17.00;99.90
35960;DHT22;22043;50.970;7.192;2022-09-09T06:01:26;16.90;99.90
35960;DHT22;22043;50.970;7.192;2022-09-09T06:03:52;17.00;99.90
35960;DHT22;22043;50.970;7.192;2022-09-09T06:06:22;16.90;99.90
35960;DHT22;22043;50.970;7.192;2022-09-09T06:08:48;16.90;99.90
35960;DHT22;22043;50.970;7.192;2022-09-09T06:11:21;16.90;99.90
35960;DHT22;22043;50.970;7.192;2022-09-09T06:13:48;16.90;99.90
35960;DHT22;22043;50.970;7.192;2022-09-09T06:16:18;16.90;99.90
35960;DHT22;22043;50.970;7.192;2022-09-09T06:18:44;17.00;99.90
35960;DHT22;22043;50.970;7.192;2022-09-09T06:21:22;16.90;99.90
35960;DHT22;22043;50.970;7.192;2022-09-09T06:23:48;16.90;99.90
35960;DHT22;22043;50.970;7.192;2022-09-09T06:26:16;16.90;99.90
35960;DHT22;22043;50.970;7.192;2022-09-09T06:28:48;17.00;99.90
35960;DHT22;22043;50.970;7.192;2022-09-09T06:31:17;17.00;99.90
35960;DHT22;22043;50.970;7.192;2022-09-09T06:33:44;17.00;99.90
35960;DHT22;22043;50.970;7.192;2022-09-09T06:36:19;17.00;99.90
35960;DHT22;22043;50.970;7.192;2022-09-09T06:38:45;17.10;99.90
35960;DHT22;22043;50.970;7.192;2022-09-09T06:41:14;17.10;99.90
35960;DHT22;22043;50.970;7.192;2022-09-09T06:43:42;17.10;99.90
35960;DHT22;22043;50.970;7.192;2022-09-09T06:46:11;17.10;99.90
35960;DHT22;22043;50.970;7.192;2022-09-09T06:48:41;17.20;99.90
35960;DHT22;22043;50.970;7.192;2022-09-09T06:51:15;17.20;99.90
35960;DHT22;22043;50.970;7.192;2022-09-09T06:53:43;17.20;99.90
35960;DHT22;22043;50.970;7.192;2022-09-09T06:56:19;17.20;99.90
35960;DHT22;22043;50.970;7.192;2022-09-09T06:58:47;17.20;99.90
35960;DHT22;22043;50.970;7.192;2022-09-09T07:01:25;17.20;99.90
35960;DHT22;22043;50.970;7.192;2022-09-09T07:03:53;17.20;99.90
35960;DHT22;22043;50.970;7.192;2022-09-09T07:06:33;17.20;99.90
35960;DHT22;22043;50.970;7.192;2022-09-09T07:09:06;17.30;99.90
35960;DHT22;22043;50.970;7.192;2022-09-09T07:11:36;17.20;99.90
35960;DHT22;22043;50.970;7.192;2022-09-09T07:14:02;17.30;99.90
35960;DHT22;22043;50.970;7.192;2022-09-09T07:16:29;17.20;99.90
35960;DHT22;22043;50.970;7.192;2022-09-09T07:18:58;17.20;99.90
35960;DHT22;22043;50.970;7.192;2022-09-09T07:21:28;17.20;99.90
35960;DHT22;22043;50.970;7.192;2022-09-09T07:23:54;17.20;99.90
35960;DHT22;22043;50.970;7.192;2022-09-09T07:26:24;17.20;99.90
35960;DHT22;22043;50.970;7.192;2022-09-09T07:28:52;17.30;99.90
35960;DHT22;22043;50.970;7.192;2022-09-09T07:31:20;17.30;99.90
35960;DHT22;22043;50.970;7.192;2022-09-09T07:33:47;17.50;99.90
35960;DHT22;22043;50.970;7.192;2022-09-09T07:36:19;17.50;99.90
35960;DHT22;22043;50.970;7.192;2022-09-09T07:38:51;17.60;99.90
35960;DHT22;22043;50.970;7.192;2022-09-09T07:41:23;17.70;99.90
35960;DHT22;22043;50.970;7.192;2022-09-09T07:43:51;17.80;99.90
35960;DHT22;22043;50.970;7.192;2022-09-09T07:46:22;18.00;99.90
35960;DHT22;22043;50.970;7.192;2022-09-09T07:48:50;18.10;99.90
35960;DHT22;22043;50.970;7.192;2022-09-09T07:51:24;18.20;99.90
35960;DHT22;22043;50.970;7.192;2022-09-09T07:53:56;18.20;99.90
35960;DHT22;22043;50.970;7.192;2022-09-09T07:56:27;18.20;99.90
35960;DHT22;22043;50.970;7.192;2022-09-09T07:58:54;18.10;99.90
35960;DHT22;22043;50.970;7.192;2022-09-09T08:01:26;18.10;99.90
35960;DHT22;22043;50.970;7.192;2022-09-09T08:04:00;18.10;99.90
35960;DHT22;22043;50.970;7.192;2022-09-09T08:06:30;18.20;99.90
35960;DHT22;22043;50.970;7.192;2022-09-09T08:08:56;18.20;99.90
35960;DHT22;22043;50.970;7.192;2022-09-09T08:11:24;18.40;99.90
35960;DHT22;22043;50.970;7.192;2022-09-09T08:13:51;18.50;99.90
35960;DHT22;22043;50.970;7.192;2022-09-09T08:16:19;18.50;99.90
35960;DHT22;22043;50.970;7.192;2022-09-09T08:18:51;18.50;99.90
35960;DHT22;22043;50.970;7.192;2022-09-09T08:21:20;18.50;99.90
35960;DHT22;22043;50.970;7.192;2022-09-09T08:23:47;18.50;99.90
35960;DHT22;22043;50.970;7.192;2022-09-09T08:26:16;18.50;99.90
35960;DHT22;22043;50.970;7.192;2022-09-09T08:28:43;18.50;99.90
35960;DHT22;22043;50.970;7.192;2022-09-09T08:31:18;18.50;99.90
35960;DHT22;22043;50.970;7.192;2022-09-09T08:33:44;18.50;99.90
35960;DHT22;22043;50.970;7.192;2022-09-09T08:36:15;18.50;99.90
35960;DHT22;22043;50.970;7.192;2022-09-09T08:38:42;18.60;99.90
35960;DHT22;22043;50.970;7.192;2022-09-09T08:43:51;18.60;99.90
35960;DHT22;22043;50.970;7.192;2022-09-09T08:47:03;18.60;99.90
35960;DHT22;22043;50.970;7.192;2022-09-09T08:49:39;18.70;99.90
35960;DHT22;22043;50.970;7.192;2022-09-09T08:52:16;18.70;99.90
35960;DHT22;22043;50.970;7.192;2022-09-09T08:54:44;18.70;99.90
35960;DHT22;22043;50.970;7.192;2022-09-09T08:57:37;18.80;99.90
35960;DHT22;22043;50.970;7.192;2022-09-09T09:00:03;19.00;99.90
35960;DHT22;22043;50.970;7.192;2022-09-09T09:03:15;19.00;99.90
35960;DHT22;22043;50.970;7.192;2022-09-09T09:05:53;19.00;99.90
35960;DHT22;22043;50.970;7.192;2022-09-09T09:08:38;19.00;99.90
35960;DHT22;22043;50.970;7.192;2022-09-09T09:11:06;19.10;99.90
35960;DHT22;22043;50.970;7.192;2022-09-09T09:13:52;19.10;99.90
35960;DHT22;22043;50.970;7.192;2022-09-09T09:16:23;19.00;99.90
35960;DHT22;22043;50.970;7.192;2022-09-09T09:18:53;19.00;99.90
35960;DHT22;22043;50.970;7.192;2022-09-09T09:21:41;19.00;99.90
35960;DHT22;22043;50.970;7.192;2022-09-09T09:26:43;19.00;99.90
35960;DHT22;22043;50.970;7.192;2022-09-09T09:29:17;19.00;99.90
35960;DHT22;22043;50.970;7.192;2022-09-09T09:31:51;18.90;99.90
35960;DHT22;22043;50.970;7.192;2022-09-09T09:34:18;18.90;99.90
35960;DHT22;22043;50.970;7.192;2022-09-09T09:36:52;18.90;99.90
35960;DHT22;22043;50.970;7.192;2022-09-09T09:39:24;18.90;99.90
35960;DHT22;22043;50.970;7.192;2022-09-09T09:41:51;18.90;99.90
35960;DHT22;22043;50.970;7.192;2022-09-09T09:44:30;18.80;99.90
35960;DHT22;22043;50.970;7.192;2022-09-09T09:47:15;18.90;99.90
35960;DHT22;22043;50.970;7.192;2022-09-09T09:49:58;19.00;99.90
35960;DHT22;22043;50.970;7.192;2022-09-09T09:52:27;19.00;99.90
35960;DHT22;22043;50.970;7.192;2022-09-09T09:54:56;19.00;99.90
35960;DHT22;22043;50.970;7.192;2022-09-09T09:57:26;19.00;99.90
35960;DHT22;22043;50.970;7.192;2022-09-09T10:00:21;18.90;99.90
35960;DHT22;22043;50.970;7.192;2022-09-09T10:02:55;18.90;99.90
35960;DHT22;22043;50.970;7.192;2022-09-09T10:05:35;18.90;99.90
35960;DHT22;22043;50.970;7.192;2022-09-09T10:08:12;18.90;99.90
35960;DHT22;22043;50.970;7.192;2022-09-09T10:16:25;19.00;99.90
35960;DHT22;22043;50.970;7.192;2022-09-09T10:18:58;19.00;99.90
35960;DHT22;22043;50.970;7.192;2022-09-09T10:22:04;19.10;99.90
35960;DHT22;22043;50.970;7.192;2022-09-09T10:24:59;19.20;99.90
35960;DHT22;22043;50.970;7.192;2022-09-09T10:30:22;19.30;99.90
35960;DHT22;22043;50.970;7.192;2022-09-09T10:38:41;19.30;99.90
35960;DHT22;22043;50.970;7.192;2022-09-09T10:41:26;19.40;99.90
35960;DHT22;22043;50.970;7.192;2022-09-09T10:49:17;19.40;99.90
35960;DHT22;22043;50.970;7.192;2022-09-09T10:52:00;19.40;99.90
35960;DHT22;22043;50.970;7.192;2022-09-09T11:00:14;19.50;99.90
35960;DHT22;22043;50.970;7.192;2022-09-09T11:02:41;19.50;99.90
35960;DHT22;22043;50.970;7.192;2022-09-09T11:05:24;19.50;99.90
35960;DHT22;22043;50.970;7.192;2022-09-09T11:08:04;19.50;99.90
35960;DHT22;22043;50.970;7.192;2022-09-09T11:16:00;19.50;99.90
35960;DHT22;22043;50.970;7.192;2022-09-09T11:18:29;19.50;99.90
35960;DHT22;22043;50.970;7.192;2022-09-09T11:21:01;19.50;99.90
35960;DHT22;22043;50.970;7.192;2022-09-09T11:23:57;19.50;99.90
35960;DHT22;22043;50.970;7.192;2022-09-09T11:26:45;19.50;99.90
35960;DHT22;22043;50.970;7.192;2022-09-09T11:40:35;19.80;99.90
35960;DHT22;22043;50.970;7.192;2022-09-09T11:43:02;19.80;99.90
35960;DHT22;22043;50.970;7.192;2022-09-09T11:45:30;19.80;99.90
35960;DHT22;22043;50.970;7.192;2022-09-09T11:47:58;19.70;99.90
35960;DHT22;22043;50.970;7.192;2022-09-09T11:52:50;19.80;99.90
35960;DHT22;22043;50.970;7.192;2022-09-09T11:55:28;19.80;99.90
35960;DHT22;22043;50.970;7.192;2022-09-09T12:00:42;20.00;99.90
35960;DHT22;22043;50.970;7.192;2022-09-09T12:03:46;20.00;99.90
35960;DHT22;22043;50.970;7.192;2022-09-09T12:06:30;20.00;99.90
35960;DHT22;22043;50.970;7.192;2022-09-09T12:09:09;20.00;99.90
35960;DHT22;22043;50.970;7.192;2022-09-09T12:11:37;20.00;99.90
35960;DHT22;22043;50.970;7.192;2022-09-09T12:14:03;20.00;99.90
35960;DHT22;22043;50.970;7.192;2022-09-09T12:16:35;20.10;99.90
35960;DHT22;22043;50.970;7.192;2022-09-09T12:19:14;20.00;99.90
35960;DHT22;22043;50.970;7.192;2022-09-09T12:21:58;20.00;99.90
35960;DHT22;22043;50.970;7.192;2022-09-09T12:25:16;20.00;99.90
35960;DHT22;22043;50.970;7.192;2022-09-09T12:27:52;20.00;99.90
35960;DHT22;22043;50.970;7.192;2022-09-09T12:30:24;20.00;99.90
35960;DHT22;22043;50.970;7.192;2022-09-09T12:33:21;19.90;99.90
35960;DHT22;22043;50.970;7.192;2022-09-09T12:35:55;20.00;99.90
35960;DHT22;22043;50.970;7.192;2022-09-09T12:38:30;19.90;99.90
35960;DHT22;22043;50.970;7.192;2022-09-09T12:40:57;19.80;99.90
35960;DHT22;22043;50.970;7.192;2022-09-09T12:43:25;19.80;99.90
35960;DHT22;22043;50.970;7.192;2022-09-09T12:46:03;19.70;99.90
35960;DHT22;22043;50.970;7.192;2022-09-09T12:48:40;19.70;99.90
35960;DHT22;22043;50.970;7.192;2022-09-09T12:51:24;19.70;99.90
35960;DHT22;22043;50.970;7.192;2022-09-09T12:53:51;19.70;99.90
35960;DHT22;22043;50.970;7.192;2022-09-09T12:56:26;19.60;99.90
35960;DHT22;22043;50.970;7.192;2022-09-09T12:58:53;19.60;99.90
35960;DHT22;22043;50.970;7.192;2022-09-09T13:01:25;19.60;99.90
35960;DHT22;22043;50.970;7.192;2022-09-09T13:03:52;19.60;99.90
35960;DHT22;22043;50.970;7.192;2022-09-09T13:06:31;19.50;99.90
35960;DHT22;22043;50.970;7.192;2022-09-09T13:08:59;19.50;99.90
35960;DHT22;22043;50.970;7.192;2022-09-09T13:11:35;19.50;99.90
35960;DHT22;22043;50.970;7.192;2022-09-09T13:14:01;19.50;99.90
35960;DHT22;22043;50.970;7.192;2022-09-09T13:16:29;19.50;99.90
35960;DHT22;22043;50.970;7.192;2022-09-09T13:19:13;19.60;99.90
35960;DHT22;22043;50.970;7.192;2022-09-09T13:21:40;19.60;99.90
35960;DHT22;22043;50.970;7.192;2022-09-09T13:24:32;19.70;99.90
35960;DHT22;22043;50.970;7.192;2022-09-09T13:27:03;19.70;99.90
35960;DHT22;22043;50.970;7.192;2022-09-09T13:29:31;19.70;99.90
35960;DHT22;22043;50.970;7.192;2022-09-09T13:32:15;19.70;99.90
35960;DHT22;22043;50.970;7.192;2022-09-09T13:34:59;19.70;99.90
35960;DHT22;22043;50.970;7.192;2022-09-09T13:37:35;19.60;99.90
35960;DHT22;22043;50.970;7.192;2022-09-09T13:40:02;19.70;99.90
35960;DHT22;22043;50.970;7.192;2022-09-09T13:42:32;19.70;99.90
35960;DHT22;22043;50.970;7.192;2022-09-09T13:45:00;19.70;99.90
35960;DHT22;22043;50.970;7.192;2022-09-09T13:47:32;19.70;99.90
35960;DHT22;22043;50.970;7.192;2022-09-09T13:49:58;19.70;99.90
35960;DHT22;22043;50.970;7.192;2022-09-09T13:52:24;19.80;99.90
35960;DHT22;22043;50.970;7.192;2022-09-09T13:54:52;19.80;99.90
35960;DHT22;22043;50.970;7.192;2022-09-09T13:57:20;19.80;99.90
35960;DHT22;22043;50.970;7.192;2022-09-09T13:59:47;19.80;99.90
35960;DHT22;22043;50.970;7.192;2022-09-09T14:02:14;19.90;99.90
35960;DHT22;22043;50.970;7.192;2022-09-09T14:04:39;19.90;99.90
35960;DHT22;22043;50.970;7.192;2022-09-09T14:07:16;19.90;99.90
35960;DHT22;22043;50.970;7.192;2022-09-09T14:09:43;19.80;99.90
35960;DHT22;22043;50.970;7.192;2022-09-09T14:12:12;19.80;99.90
35960;DHT22;22043;50.970;7.192;2022-09-09T14:14:39;19.90;99.90
35960;DHT22;22043;50.970;7.192;2022-09-09T14:17:05;19.90;99.90
35960;DHT22;22043;50.970;7.192;2022-09-09T14:19:31;19.90;99.90
35960;DHT22;22043;50.970;7.192;2022-09-09T14:21:57;19.90;99.90
35960;DHT22;22043;50.970;7.192;2022-09-09T14:24:23;20.00;99.90
35960;DHT22;22043;50.970;7.192;2022-09-09T14:26:49;20.00;99.90
35960;DHT22;22043;50.970;7.192;2022-09-09T14:29:14;20.00;99.90
35960;DHT22;22043;50.970;7.192;2022-09-09T14:31:40;20.00;99.90
35960;DHT22;22043;50.970;7.192;2022-09-09T14:34:06;20.10;99.90
35960;DHT22;22043;50.970;7.192;2022-09-09T14:36:31;20.10;99.90
35960;DHT22;22043;50.970;7.192;2022-09-09T14:38:57;20.20;99.90
35960;DHT22;22043;50.970;7.192;2022-09-09T14:41:24;20.20;99.90
35960;DHT22;22043;50.970;7.192;2022-09-09T14:43:50;20.20;99.90
35960;DHT22;22043;50.970;7.192;2022-09-09T14:46:18;20.20;99.90
35960;DHT22;22043;50.970;7.192;2022-09-09T14:48:44;20.10;99.90
35960;DHT22;22043;50.970;7.192;2022-09-09T14:51:19;20.10;99.90
35960;DHT22;22043;50.970;7.192;2022-09-09T14:53:46;20.10;99.90
35960;DHT22;22043;50.970;7.192;2022-09-09T14:56:15;20.00;99.90
35960;DHT22;22043;50.970;7.192;2022-09-09T14:58:41;20.00;99.90
35960;DHT22;22043;50.970;7.192;2022-09-09T15:01:09;19.90;99.90
35960;DHT22;22043;50.970;7.192;2022-09-09T15:03:39;19.90;99.90
35960;DHT22;22043;50.970;7.192;2022-09-09T15:06:10;19.80;99.90
35960;DHT22;22043;50.970;7.192;2022-09-09T15:08:37;19.70;99.90
35960;DHT22;22043;50.970;7.192;2022-09-09T15:11:04;19.70;99.90
35960;DHT22;22043;50.970;7.192;2022-09-09T15:13:30;19.60;99.90
35960;DHT22;22043;50.970;7.192;2022-09-09T15:15:55;19.50;99.90
35960;DHT22;22043;50.970;7.192;2022-09-09T15:18:23;19.50;99.90
35960;DHT22;22043;50.970;7.192;2022-09-09T15:20:49;19.30;99.90
35960;DHT22;22043;50.970;7.192;2022-09-09T15:23:14;19.20;99.90
35960;DHT22;22043;50.970;7.192;2022-09-09T15:25:53;19.20;99.90
35960;DHT22;22043;50.970;7.192;2022-09-09T15:28:19;19.00;99.90
35960;DHT22;22043;50.970;7.192;2022-09-09T15:30:50;19.00;99.90
35960;DHT22;22043;50.970;7.192;2022-09-09T15:33:20;19.00;99.90
35960;DHT22;22043;50.970;7.192;2022-09-09T15:35:46;19.00;99.90
35960;DHT22;22043;50.970;7.192;2022-09-09T15:38:12;19.00;99.90
35960;DHT22;22043;50.970;7.192;2022-09-09T15:40:42;19.00;99.90
35960;DHT22;22043;50.970;7.192;2022-09-09T15:43:08;18.90;99.90
35960;DHT22;22043;50.970;7.192;2022-09-09T15:45:35;18.90;99.90
35960;DHT22;22043;50.970;7.192;2022-09-09T15:48:01;18.90;99.90
35960;DHT22;22043;50.970;7.192;2022-09-09T15:50:27;18.90;99.90
35960;DHT22;22043;50.970;7.192;2022-09-09T15:52:56;18.90;99.90
35960;DHT22;22043;50.970;7.192;2022-09-09T15:55:22;18.90;99.90
35960;DHT22;22043;50.970;7.192;2022-09-09T15:57:51;18.80;99.90
35960;DHT22;22043;50.970;7.192;2022-09-09T16:00:18;18.70;99.90
35960;DHT22;22043;50.970;7.192;2022-09-09T16:02:47;18.70;99.90
35960;DHT22;22043;50.970;7.192;2022-09-09T16:05:13;18.60;99.90
35960;DHT22;22043;50.970;7.192;2022-09-09T16:07:39;18.50;99.90
35960;DHT22;22043;50.970;7.192;2022-09-09T16:10:05;18.50;99.90
35960;DHT22;22043;50.970;7.192;2022-09-09T16:12:31;18.40;99.90
35960;DHT22;22043;50.970;7.192;2022-09-09T16:14:58;18.40;99.90
35960;DHT22;22043;50.970;7.192;2022-09-09T16:17:24;18.30;99.90
35960;DHT22;22043;50.970;7.192;2022-09-09T16:19:50;18.20;99.90
35960;DHT22;22043;50.970;7.192;2022-09-09T16:22:16;18.10;99.90
35960;DHT22;22043;50.970;7.192;2022-09-09T16:24:43;18.00;99.90
35960;DHT22;22043;50.970;7.192;2022-09-09T16:27:09;17.90;99.90
35960;DHT22;22043;50.970;7.192;2022-09-09T16:29:36;17.90;99.90
35960;DHT22;22043;50.970;7.192;2022-09-09T16:32:02;17.80;99.90
35960;DHT22;22043;50.970;7.192;2022-09-09T16:34:28;17.70;99.90
35960;DHT22;22043;50.970;7.192;2022-09-09T16:36:53;17.70;99.90
35960;DHT22;22043;50.970;7.192;2022-09-09T16:39:20;17.60;99.90
35960;DHT22;22043;50.970;7.192;2022-09-09T16:41:48;17.50;99.90
35960;DHT22;22043;50.970;7.192;2022-09-09T16:44:15;17.50;99.90
35960;DHT22;22043;50.970;7.192;2022-09-09T16:46:46;17.50;99.90
35960;DHT22;22043;50.970;7.192;2022-09-09T16:49:14;17.40;99.90
35960;DHT22;22043;50.970;7.192;2022-09-09T16:51:50;17.40;99.90
35960;DHT22;22043;50.970;7.192;2022-09-09T16:54:19;17.40;99.90
35960;DHT22;22043;50.970;7.192;2022-09-09T16:56:47;17.30;99.90
35960;DHT22;22043;50.970;7.192;2022-09-09T16:59:17;17.30;99.90
35960;DHT22;22043;50.970;7.192;2022-09-09T17:01:45;17.30;99.90
35960;DHT22;22043;50.970;7.192;2022-09-09T17:04:13;17.30;99.90
35960;DHT22;22043;50.970;7.192;2022-09-09T17:06:40;17.30;99.90
35960;DHT22;22043;50.970;7.192;2022-09-09T17:09:10;17.30;99.90
35960;DHT22;22043;50.970;7.192;2022-09-09T17:11:38;17.30;99.90
35960;DHT22;22043;50.970;7.192;2022-09-09T17:14:05;17.30;99.90
35960;DHT22;22043;50.970;7.192;2022-09-09T17:16:32;17.30;99.90
35960;DHT22;22043;50.970;7.192;2022-09-09T17:19:02;17.30;99.90